Time;durP1;ratioP1;P1;durP2;ratioP2;P2;SDS_P1;SDS_P2;PMS_P1;PMS_P2;Temp;Humidity;BMP_temperature;BMP_pressure;BME280_temperature;BME280_humidity;BME280_pressure;Samples;Min_cycle;Max_cycle;Signal;HPM_P1;HPM_P2
2021/12/04 00:02:45;;;;;;;8.45;4.60;;;;;;;0.19;57.55;96921.91;9715321;30;20482;-79
2021/12/04 00:08:35;;;;;;;7.40;4.22;;;;;;;0.16;57.85;96923.00;9713362;30;20062;-79
2021/12/04 00:13:56;;;;;;;7.18;4.03;;;;;;;0.16;57.63;96903.78;9713734;30;20049;-79
2021/12/04 00:19:17;;;;;;;8.70;5.22;;;;;;;0.14;57.62;96898.84;9713944;30;20057;-79
2021/12/04 00:24:38;;;;;;;10.15;5.03;;;;;;;0.13;57.96;96894.63;9713607;30;20057;-79
2021/12/04 00:29:59;;;;;;;9.27;5.75;;;;;;;0.15;57.84;96872.84;9725154;30;20056;-79
2021/12/04 00:35:33;;;;;;;11.02;6.22;;;;;;;0.13;58.09;96874.69;9713341;30;20049;-78
2021/12/04 00:52:16;;;;;;;15.50;6.88;;;;;;;0.07;58.57;96855.63;9715055;30;20071;-79
2021/12/04 00:57:38;;;;;;;9.25;5.32;;;;;;;0.05;57.87;96857.47;9712723;30;20092;-78
2021/12/04 01:03:01;;;;;;;10.83;5.43;;;;;;;-0.02;58.34;96850.69;9713193;30;20057;-79
2021/12/04 01:08:22;;;;;;;10.05;5.43;;;;;;;-0.06;58.45;96831.84;9712618;30;20060;-78
2021/12/04 01:13:44;;;;;;;9.10;5.47;;;;;;;-0.12;58.86;96830.53;9712457;30;20076;-79
2021/12/04 01:19:05;;;;;;;8.68;4.70;;;;;;;-0.08;58.92;96820.69;9712505;30;20545;-78
2021/12/04 01:24:26;;;;;;;10.85;5.25;;;;;;;-0.05;59.09;96807.88;9705902;30;20081;-78
2021/12/04 01:29:47;;;;;;;9.00;5.10;;;;;;;0.00;59.12;96793.25;9712562;30;20046;-79
2021/12/04 01:35:08;;;;;;;8.85;4.82;;;;;;;0.08;58.87;96783.00;9700172;30;20064;-78
2021/12/04 01:40:30;;;;;;;5.90;3.88;;;;;;;0.08;58.71;96765.81;9712245;30;20490;-78
2021/12/04 01:45:54;;;;;;;7.93;4.78;;;;;;;0.10;58.57;96760.53;9712235;30;20050;-79
2021/12/04 01:51:15;;;;;;;7.47;4.47;;;;;;;0.10;58.95;96758.53;9701179;30;20137;-78
2021/12/04 01:56:36;;;;;;;6.55;4.13;;;;;;;0.13;58.58;96746.44;9717945;30;20087;-79
2021/12/04 02:01:57;;;;;;;5.35;3.92;;;;;;;0.20;58.44;96725.78;9718120;30;20077;-78
2021/12/04 02:07:20;;;;;;;6.75;4.50;;;;;;;0.15;58.52;96716.44;9717912;30;20045;-78
2021/12/04 02:12:41;;;;;;;7.93;4.50;;;;;;;0.18;58.50;96698.84;9729754;30;20119;-79
2021/12/04 02:18:05;;;;;;;6.85;4.20;;;;;;;0.22;58.35;96699.22;9717464;30;20053;-79
2021/12/04 02:23:26;;;;;;;6.45;3.85;;;;;;;0.25;58.29;96709.09;9729470;30;20057;-79
2021/12/04 02:28:47;;;;;;;6.55;4.07;;;;;;;0.28;58.60;96694.25;9717018;30;20612;-79
2021/12/04 02:34:10;;;;;;;4.63;3.13;;;;;;;0.42;58.31;96696.81;9729233;30;20050;-78
2021/12/04 02:39:34;;;;;;;7.95;3.90;;;;;;;0.36;58.13;96685.28;9716792;30;20046;-79
2021/12/04 02:44:55;;;;;;;6.30;3.80;;;;;;;0.36;58.10;96679.81;9716992;30;20057;-78
2021/12/04 02:50:17;;;;;;;5.70;3.38;;;;;;;0.40;57.50;96680.19;9716352;30;20412;-79
2021/12/04 02:55:38;;;;;;;7.15;3.92;;;;;;;0.42;57.78;96659.13;9703991;30;20080;-79
2021/12/04 03:01:01;;;;;;;7.50;3.28;;;;;;;0.51;57.76;96653.06;9716252;30;20490;-79
2021/12/04 03:06:22;;;;;;;7.18;3.40;;;;;;;0.59;57.75;96650.28;9716341;30;20127;-79
2021/12/04 03:12:11;;;;;;;7.05;3.00;;;;;;;0.55;56.90;96634.19;9711903;30;20409;-78
2021/12/04 03:17:32;;;;;;;5.75;3.20;;;;;;;0.59;57.19;96625.59;9705350;30;20054;-78
2021/12/04 03:22:59;;;;;;;4.57;2.83;;;;;;;0.58;57.42;96624.13;9716673;30;20480;-78
2021/12/04 03:28:20;;;;;;;4.47;2.75;;;;;;;0.62;56.32;96616.22;9717045;30;20100;-79
2021/12/04 03:45:02;;;;;;;5.65;2.92;;;;;;;0.84;55.99;96585.16;9717434;30;20175;-78
2021/12/04 03:50:22;;;;;;;3.97;2.63;;;;;;;0.87;54.76;96580.59;9715115;30;20060;-79
2021/12/04 03:55:43;;;;;;;3.97;2.60;;;;;;;1.02;55.72;96582.53;9715238;30;20156;-78
2021/12/04 04:01:05;;;;;;;5.80;3.22;;;;;;;1.09;54.48;96570.75;9715213;30;20084;-78
2021/12/04 04:06:27;;;;;;;7.35;2.88;;;;;;;1.09;54.34;96581.75;9722698;30;20054;-78
2021/12/04 04:11:48;;;;;;;5.53;3.00;;;;;;;1.11;54.40;96581.91;9731995;30;20053;-78
2021/12/04 04:17:10;;;;;;;4.25;2.60;;;;;;;1.12;54.50;96586.13;9727176;30;20068;-78
2021/12/04 04:22:31;;;;;;;3.78;2.50;;;;;;;1.08;54.19;96583.03;9721248;30;20057;-79
2021/12/04 04:27:52;;;;;;;4.72;2.90;;;;;;;1.11;54.66;96588.16;9709268;30;20506;-79
2021/12/04 04:33:14;;;;;;;4.35;2.78;;;;;;;1.13;54.45;96576.59;9728272;30;20063;-78
2021/12/04 04:38:45;;;;;;;4.68;3.10;;;;;;;1.07;52.78;96587.09;9724454;30;20049;-78
2021/12/04 05:12:21;;;;;;;5.00;2.90;;;;;;;1.12;54.40;96570.34;9723798;30;20805;-79
2021/12/04 05:23:11;;;;;;;4.75;3.05;;;;;;;1.44;54.21;96575.06;9736507;30;20061;-79
2021/12/04 05:28:32;;;;;;;4.43;3.20;;;;;;;1.46;53.22;96573.81;9743715;30;20045;-80
2021/12/04 05:33:53;;;;;;;4.90;2.83;;;;;;;1.44;53.77;96582.59;9722189;30;20053;-78
2021/12/04 05:39:14;;;;;;;4.88;2.40;;;;;;;1.52;53.92;96582.53;9739562;30;20042;-78
2021/12/04 05:44:35;;;;;;;3.83;2.40;;;;;;;1.55;54.50;96581.44;9752149;30;20067;-79
2021/12/04 05:55:41;;;;;;;3.50;1.85;;;;;;;1.50;56.63;96557.63;9732196;30;20413;-80
2021/12/04 06:01:04;;;;;;;2.60;1.35;;;;;;;1.26;59.51;96562.59;9743244;30;20761;-79
2021/12/04 06:06:26;;;;;;;3.05;1.40;;;;;;;1.03;59.35;96570.22;9748561;30;20420;-78
2021/12/04 06:11:49;;;;;;;4.25;1.95;;;;;;;0.63;63.55;96554.50;9744079;30;20179;-79
2021/12/04 06:17:10;;;;;;;3.90;2.05;;;;;;;0.43;65.85;96541.78;9718684;30;20557;-78
2021/12/04 06:22:37;;;;;;;4.60;2.30;;;;;;;0.19;65.10;96552.13;9741677;30;20052;-78
2021/12/04 06:27:59;;;;;;;4.32;2.70;;;;;;;0.06;67.71;96541.34;9739593;30;20046;-78
2021/12/04 06:33:20;;;;;;;5.03;3.47;;;;;;;-0.14;68.55;96545.06;9705532;30;20450;-78
2021/12/04 06:38:42;;;;;;;4.47;2.97;;;;;;;-0.24;68.96;96546.91;9704189;30;20475;-78
2021/12/04 06:44:04;;;;;;;6.07;3.55;;;;;;;-0.32;69.87;96544.91;9705044;30;20061;-78
2021/12/04 06:49:39;;;;;;;8.07;5.00;;;;;;;-0.30;70.41;96558.06;9703411;30;20141;-78
2021/12/04 06:55:03;;;;;;;5.25;3.58;;;;;;;-0.27;70.20;96556.97;9705658;30;20054;-78
2021/12/04 07:00:26;;;;;;;;;;;;;;;-0.34;71.51;96546.75;9695039;30;20065;-78
2021/12/04 07:05:57;;;;;;;6.93;4.07;;;;;;;-0.38;70.77;96540.91;9706407;30;20030;-78
2021/12/04 07:11:27;;;;;;;4.60;3.47;;;;;;;-0.31;69.69;96538.13;9704707;30;20079;-78
2021/12/04 07:16:53;;;;;;;4.90;3.63;;;;;;;-0.25;71.55;96520.78;9704846;30;20057;-78
2021/12/04 07:22:14;;;;;;;5.68;3.58;;;;;;;-0.23;71.79;96520.94;9703746;30;20085;-78
2021/12/04 07:27:37;;;;;;;4.95;3.55;;;;;;;-0.31;73.05;96513.47;9703613;30;20054;-78
2021/12/04 07:32:59;;;;;;;6.93;4.07;;;;;;;-0.28;72.96;96510.91;9703499;30;20458;-79
2021/12/04 07:38:20;;;;;;;5.82;4.03;;;;;;;-0.24;73.73;96500.28;9692111;30;20188;-78
2021/12/04 07:43:50;;;;;;;7.18;3.40;;;;;;;-0.10;72.84;96490.56;9696681;30;20061;-79
2021/12/04 07:49:11;;;;;;;5.05;3.67;;;;;;;-0.10;73.09;96488.53;9702649;30;20057;-78
2021/12/04 07:54:36;;;;;;;5.68;3.67;;;;;;;-0.07;73.71;96492.94;9702757;30;20555;-79
2021/12/04 07:59:58;;;;;;;7.50;3.97;;;;;;;-0.12;74.09;96480.13;9702462;30;20061;-78
2021/12/04 08:05:52;;;;;;;6.10;3.08;;;;;;;-0.22;75.69;96476.50;9702443;30;20056;-78
2021/12/04 08:12:14;;;;;;;4.10;3.13;;;;;;;-0.35;75.71;96480.19;9709983;30;20398;-78
2021/12/04 08:18:04;;;;;;;4.55;2.95;;;;;;;-0.35;75.05;96474.72;9718610;30;20062;-78
2021/12/04 08:23:28;;;;;;;3.50;2.40;;;;;;;-0.28;75.24;96467.75;9702701;30;20049;-78
2021/12/04 08:30:28;;;;;;;4.65;2.97;;;;;;;-0.25;75.62;96461.16;9727845;30;20054;-78
2021/12/04 08:36:59;;;;;;;3.85;2.78;;;;;;;-0.03;75.70;96451.41;9702588;30;20497;-78
2021/12/04 08:42:21;;;;;;;4.85;3.35;;;;;;;0.15;75.76;96444.00;9702237;30;20045;-78
2021/12/04 08:48:12;;;;;;;4.65;2.80;;;;;;;0.28;75.51;96439.00;9709428;30;20502;-78
2021/12/04 08:53:36;;;;;;;4.85;2.80;;;;;;;0.34;75.53;96440.81;9701361;30;20046;-78
2021/12/04 08:59:08;;;;;;;5.35;2.83;;;;;;;0.44;75.69;96452.66;9703263;30;20065;-78
2021/12/04 09:04:36;;;;;;;9.75;3.83;;;;;;;0.42;75.01;96439.47;9709023;30;20056;-79
2021/12/04 09:10:36;;;;;;;3.90;2.13;;;;;;;0.48;75.46;96433.75;9716179;30;20414;-78
2021/12/04 09:15:58;;;;;;;3.28;1.80;;;;;;;0.66;75.16;96420.84;9708227;30;20057;-79
2021/12/04 09:21:22;;;;;;;2.90;1.60;;;;;;;0.73;75.13;96409.06;9709510;30;20045;-78
2021/12/04 09:26:55;;;;;;;3.00;1.67;;;;;;;0.91;74.64;96413.31;9709125;30;20123;-78
2021/12/04 10:37:05;;;;;;;3.65;2.58;;;;;;;1.73;74.13;96349.78;10158887;24;20067;31
2021/12/04 10:55:14;;;;;;;4.00;2.75;;;;;;;2.16;73.03;96324.84;11890345;24;20031;-81
2021/12/04 11:36:00;;;;;;;6.47;2.58;;;;;;;2.54;71.18;96280.94;9828158;30;20052;-76
2021/12/04 11:46:45;;;;;;;4.18;3.22;;;;;;;2.38;72.25;96276.97;9800668;30;20164;-76
2021/12/04 11:52:14;;;;;;;5.18;2.63;;;;;;;2.12;71.80;96277.72;9845348;30;20059;-81
2021/12/04 11:57:38;;;;;;;5.63;3.60;;;;;;;2.11;72.52;96266.00;9830945;29;20058;-80
2021/12/04 12:03:20;;;;;;;6.15;3.63;;;;;;;2.19;71.83;96255.59;9802031;30;20056;-78
2021/12/04 12:08:43;;;;;;;4.53;3.22;;;;;;;2.22;72.14;96237.19;9759051;30;20131;-76
2021/12/04 12:14:11;;;;;;;5.53;3.15;;;;;;;2.19;71.77;96224.59;9774257;30;20104;-76
2021/12/04 12:19:41;;;;;;;5.57;3.47;;;;;;;2.16;72.57;96211.97;9774258;30;20076;-76
2021/12/04 12:37:26;;;;;;;6.57;3.95;;;;;;;2.18;72.20;96190.81;9787180;30;20072;-75
2021/12/04 12:42:47;;;;;;;8.27;5.28;;;;;;;2.07;72.32;96187.91;9761970;30;20055;-76
2021/12/04 12:48:11;;;;;;;8.75;4.80;;;;;;;2.04;72.50;96180.81;9773840;30;20106;-76
2021/12/04 12:53:39;;;;;;;9.88;4.95;;;;;;;1.96;72.98;96178.91;9773490;30;20190;-76
2021/12/04 12:59:06;;;;;;;10.02;4.97;;;;;;;2.00;72.76;96186.72;9776430;30;20072;-83
2021/12/04 13:16:30;;;;;;;7.25;4.57;;;;;;;1.93;72.91;96185.56;9770559;30;20586;-79
2021/12/04 13:21:55;;;;;;;9.82;4.93;;;;;;;1.89;73.31;96173.50;9761393;30;20049;-79
2021/12/04 13:32:42;;;;;;;10.85;5.75;;;;;;;1.86;73.53;96169.16;9737318;30;20045;-77
2021/12/04 13:38:05;;;;;;;12.13;6.32;;;;;;;1.88;74.19;96161.03;9748404;30;20497;-77
2021/12/04 13:43:33;;;;;;;15.82;8.68;;;;;;;1.84;74.17;96163.50;9737912;30;20552;-77
2021/12/04 13:49:01;;;;;;;16.27;9.77;;;;;;;1.72;74.42;96166.78;9740602;30;20073;-77
2021/12/04 13:54:26;;;;;;;17.17;10.75;;;;;;;1.72;74.61;96155.78;9742448;30;20107;-77
2021/12/04 13:59:47;;;;;;;18.30;10.38;;;;;;;1.73;74.31;96165.47;9742863;30;20049;-79
2021/12/04 14:05:17;;;;;;;17.02;10.88;;;;;;;1.84;74.83;96149.75;9755486;30;20131;-79
2021/12/04 14:10:46;;;;;;;16.50;11.00;;;;;;;1.85;74.72;96162.22;9819889;30;20064;-78
2021/12/04 14:16:09;;;;;;;18.45;12.23;;;;;;;1.81;74.78;96159.13;9825946;30;20059;-78
2021/12/04 14:21:38;;;;;;;22.90;12.43;;;;;;;1.84;74.63;96153.22;9815703;30;20068;-77
2021/12/04 14:27:01;;;;;;;19.90;12.32;;;;;;;1.75;74.81;96153.91;9854085;30;20060;-82
2021/12/04 14:32:24;;;;;;;18.63;13.23;;;;;;;1.67;74.33;96147.81;9871278;30;20070;-83
2021/12/04 14:37:50;;;;;;;21.33;14.38;;;;;;;1.62;74.62;96149.50;9866319;30;20053;-82
2021/12/04 14:43:13;;;;;;;21.83;13.73;;;;;;;1.60;75.16;96152.13;9825208;30;20093;-77
2021/12/04 14:48:39;;;;;;;25.95;14.90;;;;;;;1.56;74.81;96140.09;9825013;30;20075;-79
2021/12/04 14:54:09;;;;;;;22.70;14.15;;;;;;;1.57;74.45;96149.78;9826998;30;20055;-79
2021/12/04 14:59:33;;;;;;;24.05;15.27;;;;;;;1.54;75.17;96148.16;9811929;30;20070;-78
2021/12/04 15:04:58;;;;;;;21.08;14.57;;;;;;;1.53;75.38;96141.22;9813383;30;20404;-79
2021/12/04 15:10:20;;;;;;;21.00;13.48;;;;;;;1.56;75.12;96149.06;9840531;30;20054;-81
2021/12/04 15:15:43;;;;;;;22.73;13.35;;;;;;;1.63;75.44;96144.72;9844124;30;20112;-82
2021/12/04 15:21:07;;;;;;;21.42;12.73;;;;;;;1.61;74.85;96150.09;9827332;30;20082;-81
2021/12/04 15:26:29;;;;;;;17.30;12.32;;;;;;;1.57;75.13;96147.03;9835330;30;20152;-83
2021/12/04 15:31:51;;;;;;;19.85;12.95;;;;;;;1.63;75.32;96158.47;9835173;30;20044;-82
2021/12/04 15:37:13;;;;;;;22.30;13.23;;;;;;;1.65;75.35;96155.91;9843953;30;20048;-79
2021/12/04 15:42:52;;;;;;;21.55;12.98;;;;;;;1.77;75.00;96156.81;9848643;30;20100;-81
2021/12/04 15:53:52;;;;;;;19.27;12.70;;;;;;;1.77;75.06;96140.31;9831026;30;20064;-82
2021/12/04 15:59:18;;;;;;;20.77;12.27;;;;;;;1.73;75.56;96129.00;9851632;30;20052;-82
2021/12/04 16:04:39;;;;;;;18.10;12.38;;;;;;;1.69;75.26;96129.41;9820776;30;20111;-81
2021/12/04 16:10:11;;;;;;;19.88;12.60;;;;;;;1.76;75.14;96119.59;10000840;24;20101;-79
2021/12/04 16:15:34;;;;;;;20.40;13.07;;;;;;;1.84;75.31;96122.97;9814841;30;20052;-80
2021/12/04 16:20:55;;;;;;;20.17;13.13;;;;;;;1.85;74.94;96107.91;9828200;30;20081;-82
2021/12/04 16:26:18;;;;;;;21.40;12.55;;;;;;;1.85;74.96;96104.44;9830072;30;20116;-84
2021/12/04 16:37:44;;;;;;;19.75;12.55;;;;;;;1.84;74.94;96084.44;9849746;30;20052;-82
2021/12/04 16:43:11;;;;;;;19.60;12.00;;;;;;;1.85;75.24;96090.66;9826498;30;20408;-81
2021/12/04 16:48:38;;;;;;;21.13;12.93;;;;;;;1.88;75.09;96087.47;9817286;30;20032;-78
2021/12/04 17:00:04;;;;;;;19.42;12.77;;;;;;;1.85;74.94;96085.16;9838380;30;20182;-80
2021/12/04 17:05:32;;;;;;;19.77;13.37;;;;;;;1.91;75.14;96080.81;9854437;30;20060;-83
2021/12/04 17:10:59;;;;;;;20.40;12.68;;;;;;;1.93;74.95;96075.47;9854703;30;20064;-81
2021/12/04 17:16:27;;;;;;;22.17;13.70;;;;;;;1.86;74.76;96081.84;9859085;30;20059;-84
2021/12/04 17:21:51;;;;;;;21.40;13.25;;;;;;;1.86;74.76;96068.06;9856220;30;20056;-85
2021/12/04 17:27:14;;;;;;;21.60;14.65;;;;;;;1.76;74.57;96061.84;9856209;30;20056;-82
2021/12/04 17:32:37;;;;;;;23.08;14.65;;;;;;;1.78;74.75;96061.25;9857904;30;20052;-81
2021/12/04 17:38:00;;;;;;;22.70;13.32;;;;;;;1.81;75.16;96058.06;9845908;30;20045;-81
2021/12/04 17:43:21;;;;;;;22.27;14.25;;;;;;;1.84;74.89;96048.66;9835621;30;20111;-81
2021/12/04 17:48:44;;;;;;;23.05;14.15;;;;;;;1.87;75.24;96053.00;9842077;30;20056;-82
2021/12/04 17:54:09;;;;;;;25.23;16.50;;;;;;;1.89;74.63;96055.19;9826387;30;20385;-78
2021/12/04 17:59:30;;;;;;;24.83;14.77;;;;;;;1.94;74.57;96065.91;9830138;30;20063;-82
2021/12/04 18:04:59;;;;;;;25.15;16.00;;;;;;;1.93;75.34;96047.97;10563376;24;20087;-85
2021/12/04 18:10:21;;;;;;;23.83;15.25;;;;;;;1.96;75.26;96049.56;9825922;30;20059;-76
2021/12/04 18:15:52;;;;;;;22.95;15.05;;;;;;;1.98;74.81;96048.97;9814578;30;20136;-79
2021/12/04 18:21:13;;;;;;;21.85;15.18;;;;;;;1.99;74.94;96039.41;9837337;30;20060;-81
2021/12/04 18:26:36;;;;;;;25.85;17.00;;;;;;;2.04;75.00;96040.44;9834807;30;20496;-81
2021/12/04 18:32:03;;;;;;;24.77;16.25;;;;;;;2.03;75.06;96034.22;9835008;30;20158;-81
2021/12/04 18:37:25;;;;;;;25.33;15.88;;;;;;;2.03;75.15;96022.44;9835452;30;20059;-81
2021/12/04 18:42:47;;;;;;;27.40;16.63;;;;;;;2.00;75.54;96019.56;9836489;30;20507;-81
2021/12/04 18:48:19;;;;;;;23.67;16.30;;;;;;;1.90;75.37;96018.09;9829788;30;20059;-80
2021/12/04 18:53:41;;;;;;;28.88;17.58;;;;;;;1.88;75.66;96018.69;9826797;30;20092;-81
2021/12/04 18:59:07;;;;;;;24.15;16.30;;;;;;;1.96;75.34;96015.81;9821879;30;20048;-80
2021/12/04 19:04:31;;;;;;;24.13;15.57;;;;;;;2.00;75.64;96019.56;9836363;30;20064;-84
2021/12/04 19:09:59;;;;;;;30.17;17.27;;;;;;;1.92;75.71;96007.97;9843588;30;20480;-82
2021/12/04 19:15:29;;;;;;;23.38;16.23;;;;;;;1.92;76.16;95999.00;9833357;30;20112;-83
2021/12/04 19:21:00;;;;;;;22.65;15.57;;;;;;;1.93;76.17;96003.94;9850794;30;20048;-83
2021/12/04 19:26:29;;;;;;;23.90;15.40;;;;;;;1.89;76.31;95995.38;9831614;30;20462;-80
2021/12/04 19:32:23;;;;;;;22.75;14.80;;;;;;;1.88;76.28;95991.16;9824322;30;20052;-80
2021/12/04 19:50:25;;;;;;;21.85;14.70;;;;;;;1.98;76.81;95966.41;9834753;30;20128;-80
2021/12/04 19:55:12;;;;;;;20.48;13.90;;;;;;;2.00;76.60;95969.31;9816341;30;20071;-79
2021/12/04 20:00:55;;;;;;;24.63;15.32;;;;;;;1.93;76.79;95970.91;9817357;30;20388;-80
2021/12/04 20:06:40;;;;;;;22.38;15.63;;;;;;;1.84;76.69;95968.88;9820500;30;20063;-80
2021/12/04 20:17:58;;;;;;;24.35;15.90;;;;;;;1.84;77.44;95960.63;9823494;30;20389;-80
2021/12/04 20:23:24;;;;;;;23.00;16.27;;;;;;;1.85;77.12;95961.34;9822223;30;20101;-81
2021/12/04 20:52:39;;;;;;;25.48;16.92;;;;;;;1.66;78.38;95964.81;9821310;30;20140;-78
2021/12/04 21:53:00;;;;;;;21.23;14.23;;;;;;;2.05;78.32;95960.03;9831837;30;20179;-76
2021/12/04 22:09:51;;;;;;;21.65;15.02;;;;;;;2.08;78.14;95974.66;9842589;30;20060;-77
2021/12/04 22:15:35;;;;;;;22.33;15.43;;;;;;;2.10;77.58;95969.28;9833305;30;20500;-76
2021/12/04 23:01:30;;;;;;;21.40;15.25;;;;;;;2.40;78.47;95976.94;9911078;24;20103;-76
2021/12/04 23:13:37;;;;;;;25.83;16.67;;;;;;;2.44;77.95;95982.75;9827067;30;20052;-76
